createdAt,value
2018-08-21T00:01:23.813Z,20.82
2018-08-21T00:03:52.874Z,20.77
2018-08-21T00:06:21.335Z,20.75
2018-08-21T00:08:49.454Z,20.72
2018-08-21T00:11:29.045Z,20.68
2018-08-21T00:13:57.178Z,20.61
2018-08-21T00:16:26.649Z,20.54
2018-08-21T00:18:56.181Z,20.51
2018-08-21T00:21:24.818Z,20.51
2018-08-21T00:24:08.349Z,20.49
2018-08-21T00:26:37.053Z,20.46
2018-08-21T00:29:05.602Z,20.41
2018-08-21T00:31:39.574Z,20.32
2018-08-21T00:34:07.681Z,20.23
2018-08-21T00:36:35.802Z,20.19
2018-08-21T00:41:48.757Z,20.17
2018-08-21T00:44:17.122Z,20.19
2018-08-21T00:46:45.249Z,20.18
2018-08-21T00:49:13.970Z,20.18
2018-08-21T00:51:42.605Z,20.19
2018-08-21T00:54:11.174Z,20.20
2018-08-21T00:56:39.483Z,20.23
2018-08-21T00:59:07.658Z,20.25
2018-08-21T01:01:36.422Z,20.25
2018-08-21T01:04:04.874Z,20.24
2018-08-21T01:06:33.815Z,20.25
2018-08-21T01:09:03.218Z,20.26
2018-08-21T01:11:31.354Z,20.24
2018-08-21T01:13:59.462Z,20.25
2018-08-21T01:16:28.309Z,20.23
2018-08-21T01:18:56.470Z,20.20
2018-08-21T01:21:25.165Z,20.17
2018-08-21T01:23:53.294Z,20.13
2018-08-21T01:26:21.874Z,20.09
2018-08-21T01:28:50.325Z,20.06
2018-08-21T01:31:18.810Z,20.04
2018-08-21T01:33:46.945Z,20.01
2018-08-21T01:36:15.458Z,19.98
2018-08-21T01:38:43.922Z,19.95
2018-08-21T01:41:12.361Z,19.92
2018-08-21T01:43:40.827Z,19.89
2018-08-21T01:46:09.794Z,19.86
2018-08-21T01:48:38.243Z,19.83
2018-08-21T01:51:06.623Z,19.78
2018-08-21T01:53:35.277Z,19.74
2018-08-21T01:56:03.744Z,19.71
2018-08-21T01:58:31.914Z,19.67
2018-08-21T02:01:00.159Z,19.61
2018-08-21T02:03:28.541Z,19.56
2018-08-21T02:05:56.649Z,19.50
2018-08-21T02:08:25.033Z,19.46
2018-08-21T02:10:53.549Z,19.43
2018-08-21T02:13:22.426Z,19.38
2018-08-21T02:15:51.353Z,19.36
2018-08-21T02:18:19.806Z,19.31
2018-08-21T02:20:48.267Z,19.27
2018-08-21T02:23:16.390Z,19.23
2018-08-21T02:25:44.558Z,19.18
2018-08-21T02:28:13.006Z,19.18
2018-08-21T02:30:41.179Z,19.14
2018-08-21T02:33:09.742Z,19.11
2018-08-21T02:35:47.934Z,19.07
2018-08-21T02:38:16.276Z,19.04
2018-08-21T02:40:44.874Z,18.93
2018-08-21T02:43:15.470Z,18.92
2018-08-21T02:45:43.988Z,18.86
2018-08-21T02:48:12.436Z,18.83
2018-08-21T02:50:41.155Z,18.77
2018-08-21T02:53:09.281Z,18.73
2018-08-21T02:55:37.769Z,18.69
2018-08-21T02:58:06.550Z,18.64
2018-08-21T03:00:34.798Z,18.59
2018-08-21T03:03:03.513Z,18.55
2018-08-21T03:05:32.213Z,18.50
2018-08-21T03:08:00.902Z,18.46
2018-08-21T03:10:29.434Z,18.45
2018-08-21T03:12:58.107Z,18.41
2018-08-21T03:15:26.584Z,18.39
2018-08-21T03:17:55.238Z,18.37
2018-08-21T03:20:23.371Z,18.34
2018-08-21T03:22:51.511Z,18.30
2018-08-21T03:25:20.158Z,18.27
2018-08-21T03:27:48.653Z,18.24
2018-08-21T03:30:16.783Z,18.20
2018-08-21T03:32:44.907Z,18.16
2018-08-21T03:35:13.364Z,18.14
2018-08-21T03:37:42.126Z,18.11
2018-08-21T03:40:10.673Z,18.07
2018-08-21T03:42:38.992Z,18.06
2018-08-21T03:45:07.377Z,18.03
2018-08-21T03:47:43.071Z,18.00
2018-08-21T03:50:12.149Z,17.96
2018-08-21T03:52:40.826Z,17.94
2018-08-21T03:55:10.309Z,17.91
2018-08-21T03:57:39.237Z,17.89
2018-08-21T04:00:14.558Z,17.87
2018-08-21T04:02:42.997Z,17.85
2018-08-21T04:05:11.479Z,17.80
2018-08-21T04:07:39.734Z,17.76
2018-08-21T04:10:08.163Z,17.71
2018-08-21T04:12:36.571Z,17.69
2018-08-21T04:15:05.054Z,17.67
2018-08-21T04:17:33.194Z,17.64
2018-08-21T04:20:02.195Z,17.61
2018-08-21T04:22:33.241Z,17.60
2018-08-21T04:25:02.007Z,17.56
2018-08-21T04:27:33.194Z,17.53
2018-08-21T04:32:37.227Z,17.50
2018-08-21T04:35:05.816Z,17.49
2018-08-21T04:37:34.317Z,17.48
2018-08-21T04:40:02.868Z,17.47
2018-08-21T04:42:33.277Z,17.47
2018-08-21T04:45:04.297Z,17.47
2018-08-21T04:47:36.178Z,17.47
2018-08-21T04:50:05.507Z,17.47
2018-08-21T04:52:34.469Z,17.48
2018-08-21T04:55:02.962Z,17.48
2018-08-21T04:57:31.454Z,17.50
2018-08-21T05:00:01.840Z,17.54
2018-08-21T05:02:41.937Z,17.58
2018-08-21T05:05:10.841Z,17.80
2018-08-21T05:10:08.756Z,18.42
2018-08-21T05:12:39.311Z,18.67
2018-08-21T05:15:07.942Z,18.84
2018-08-21T05:17:51.269Z,18.93
2018-08-21T05:20:20.155Z,18.95
2018-08-21T05:22:48.734Z,18.99
2018-08-21T05:25:17.487Z,19.01
2018-08-21T05:27:51.423Z,19.04
2018-08-21T05:30:20.426Z,19.06
2018-08-21T05:32:50.667Z,19.05
2018-08-21T05:35:27.326Z,19.07
2018-08-21T05:37:56.447Z,19.14
2018-08-21T05:40:24.814Z,19.26
2018-08-21T05:42:52.983Z,19.39
2018-08-21T05:45:21.489Z,19.53
2018-08-21T05:47:50.227Z,19.62
2018-08-21T05:50:19.137Z,19.69
2018-08-21T05:52:47.486Z,19.72
2018-08-21T05:55:15.996Z,19.69
2018-08-21T05:57:45.325Z,19.69
2018-08-21T06:01:32.236Z,19.83
2018-08-21T06:04:00.937Z,19.99
2018-08-21T06:06:29.894Z,20.15
2018-08-21T06:08:58.351Z,20.27
2018-08-21T06:11:26.755Z,20.38
2018-08-21T06:13:55.973Z,20.43
2018-08-21T06:16:24.794Z,20.47
2018-08-21T06:18:53.936Z,20.51
2018-08-21T06:21:22.310Z,20.52
2018-08-21T06:23:50.918Z,20.59
2018-08-21T06:26:19.949Z,20.66
2018-08-21T06:28:48.397Z,20.74
2018-08-21T06:31:16.878Z,20.82
2018-08-21T06:33:45.830Z,20.82
2018-08-21T06:36:14.467Z,20.86
2018-08-21T06:38:43.379Z,20.89
2018-08-21T06:41:11.544Z,20.89
2018-08-21T06:43:49.903Z,20.88
2018-08-21T06:46:18.425Z,20.83
2018-08-21T06:48:47.215Z,20.72
2018-08-21T06:51:16.688Z,20.66
2018-08-21T06:53:45.103Z,20.69
2018-08-21T06:56:13.898Z,20.81
2018-08-21T06:58:42.359Z,20.90
2018-08-21T07:01:11.202Z,20.99
2018-08-21T07:03:39.750Z,21.12
2018-08-21T07:06:07.913Z,21.27
2018-08-21T07:08:44.352Z,21.34
2018-08-21T07:11:18.648Z,21.46
2018-08-21T07:13:46.998Z,21.53
2018-08-21T07:16:16.258Z,21.57
2018-08-21T07:18:44.677Z,21.61
2018-08-21T07:21:12.809Z,21.61
2018-08-21T07:23:41.336Z,21.67
2018-08-21T07:26:10.126Z,21.88
2018-08-21T07:28:38.537Z,22.11
2018-08-21T07:31:07.002Z,22.26
2018-08-21T07:33:35.458Z,22.39
2018-08-21T07:36:03.948Z,22.52
2018-08-21T07:38:42.690Z,22.62
2018-08-21T07:43:38.078Z,22.62
2018-08-21T07:46:10.878Z,22.62
2018-08-21T07:48:44.985Z,22.65
2018-08-21T07:51:13.763Z,22.72
2018-08-21T07:53:42.753Z,22.71
2018-08-21T07:56:12.870Z,22.70
2018-08-21T07:58:41.950Z,22.80
2018-08-21T08:01:10.340Z,22.94
2018-08-21T08:03:38.767Z,23.00
2018-08-21T08:06:07.743Z,23.03
2018-08-21T08:08:48.976Z,23.03
2018-08-21T08:11:17.658Z,22.98
2018-08-21T08:13:46.061Z,23.00
2018-08-21T08:16:15.082Z,23.09
2018-08-21T08:18:48.143Z,23.16
2018-08-21T08:21:22.355Z,23.30
2018-08-21T08:23:51.779Z,23.40
2018-08-21T08:26:20.518Z,23.40
2018-08-21T08:28:56.073Z,23.35
2018-08-21T08:31:25.142Z,23.47
2018-08-21T08:33:53.610Z,23.64
2018-08-21T08:36:21.942Z,23.85
2018-08-21T08:38:50.323Z,24.11
2018-08-21T08:41:24.220Z,24.45
2018-08-21T08:43:52.783Z,24.71
2018-08-21T08:46:22.098Z,24.92
2018-08-21T08:48:58.714Z,25.07
2018-08-21T08:51:27.522Z,25.19
2018-08-21T08:53:56.401Z,25.43
2018-08-21T08:56:26.675Z,25.61
2018-08-21T08:58:55.142Z,25.68
2018-08-21T09:01:23.622Z,25.75
2018-08-21T09:03:52.322Z,25.75
2018-08-21T09:06:27.878Z,25.78
2018-08-21T09:08:56.350Z,25.89
2018-08-21T09:11:25.206Z,26.15
2018-08-21T09:13:53.614Z,26.57
2018-08-21T09:16:22.350Z,26.87
2018-08-21T09:18:51.015Z,27.09
2018-08-21T09:21:19.139Z,27.23
2018-08-21T09:23:47.399Z,27.24
2018-08-21T09:26:24.109Z,27.26
2018-08-21T09:28:52.686Z,27.43
2018-08-21T09:31:21.206Z,27.72
2018-08-21T09:33:49.640Z,27.93
2018-08-21T09:36:17.979Z,28.03
2018-08-21T09:38:46.187Z,28.20
2018-08-21T09:41:15.718Z,28.17
2018-08-21T09:43:44.082Z,27.85
2018-08-21T09:46:12.379Z,27.68
2018-08-21T09:48:40.907Z,27.65
2018-08-21T09:51:09.959Z,27.66
2018-08-21T09:53:38.397Z,27.68
2018-08-21T09:56:06.807Z,27.77
2018-08-21T09:58:34.958Z,28.04
2018-08-21T10:01:08.346Z,28.18
2018-08-21T10:08:45.694Z,27.77
2018-08-21T10:11:13.947Z,27.66
2018-08-21T10:13:42.177Z,27.60
2018-08-21T10:16:10.611Z,27.67
2018-08-21T10:18:38.742Z,27.87
2018-08-21T10:21:11.260Z,28.10
2018-08-21T10:23:44.835Z,28.39
2018-08-21T10:26:38.234Z,28.61
2018-08-21T10:29:06.370Z,28.50
2018-08-21T10:31:37.961Z,28.30
2018-08-21T10:34:07.074Z,28.05
2018-08-21T10:36:35.958Z,27.97
2018-08-21T10:39:06.890Z,28.12
2018-08-21T10:41:35.370Z,28.44
2018-08-21T10:44:04.073Z,28.80
2018-08-21T10:46:32.171Z,29.15
2018-08-21T10:49:00.639Z,29.51
2018-08-21T10:51:28.746Z,29.95
2018-08-21T10:53:57.217Z,30.13
2018-08-21T10:56:25.633Z,30.23
2018-08-21T10:58:54.079Z,30.32
2018-08-21T11:01:22.533Z,30.29
2018-08-21T11:03:52.186Z,30.33
2018-08-21T11:06:20.834Z,30.42
2018-08-21T11:08:49.524Z,30.47
2018-08-21T11:11:18.006Z,30.31
2018-08-21T11:14:00.633Z,29.82
2018-08-21T11:16:30.394Z,29.49
2018-08-21T11:19:00.019Z,29.43
2018-08-21T11:21:28.778Z,29.42
2018-08-21T11:23:57.430Z,29.50
2018-08-21T11:26:26.107Z,29.63
2018-08-21T11:28:55.102Z,29.96
2018-08-21T11:31:23.901Z,30.35
2018-08-21T11:33:52.379Z,30.79
2018-08-21T11:36:21.159Z,31.22
2018-08-21T11:38:49.326Z,31.26
2018-08-21T11:41:18.140Z,31.40
2018-08-21T11:43:46.470Z,31.78
2018-08-21T11:46:14.917Z,32.01
2018-08-21T11:48:43.593Z,32.08
2018-08-21T11:51:12.267Z,32.31
2018-08-21T11:53:40.722Z,32.42
2018-08-21T11:56:09.194Z,32.46
2018-08-21T11:58:37.357Z,32.49
2018-08-21T12:01:05.501Z,32.48
2018-08-21T12:03:34.116Z,32.35
2018-08-21T12:06:02.629Z,32.32
2018-08-21T12:08:31.077Z,32.26
2018-08-21T12:10:59.222Z,32.02
2018-08-21T12:13:27.338Z,31.94
2018-08-21T12:15:55.481Z,32.04
2018-08-21T12:18:24.145Z,32.10
2018-08-21T12:20:52.661Z,32.28
2018-08-21T12:23:21.122Z,32.66
2018-08-21T12:25:49.254Z,33.09
2018-08-21T12:28:17.403Z,33.31
2018-08-21T12:30:45.887Z,33.43
2018-08-21T12:33:19.990Z,33.37
2018-08-21T12:35:48.126Z,32.86
2018-08-21T12:38:16.696Z,32.44
2018-08-21T12:40:45.350Z,32.37
2018-08-21T12:43:13.955Z,32.42
2018-08-21T12:45:54.414Z,32.46
2018-08-21T12:48:23.073Z,32.57
2018-08-21T12:50:51.529Z,32.35
2018-08-21T12:53:19.971Z,32.13
2018-08-21T12:55:48.558Z,32.13
2018-08-21T12:58:16.670Z,32.06
2018-08-21T13:00:45.115Z,31.90
2018-08-21T13:03:13.583Z,31.84
2018-08-21T13:05:42.050Z,31.84
2018-08-21T13:08:10.514Z,31.90
2018-08-21T13:10:39.051Z,31.93
2018-08-21T13:13:07.705Z,32.15
2018-08-21T13:15:35.853Z,32.44
2018-08-21T13:18:04.814Z,32.56
2018-08-21T13:20:33.291Z,32.53
2018-08-21T13:23:01.757Z,32.25
2018-08-21T13:25:30.321Z,32.10
2018-08-21T13:27:58.439Z,32.19
2018-08-21T13:30:26.919Z,32.35
2018-08-21T13:32:55.799Z,32.32
2018-08-21T13:35:23.930Z,32.21
2018-08-21T13:37:52.386Z,32.18
2018-08-21T13:40:20.850Z,32.20
2018-08-21T13:42:49.290Z,32.16
2018-08-21T13:45:17.415Z,32.05
2018-08-21T13:47:45.578Z,32.15
2018-08-21T13:50:13.918Z,32.19
2018-08-21T13:52:42.025Z,32.14
2018-08-21T13:55:10.696Z,32.07
2018-08-21T13:57:39.171Z,31.99
2018-08-21T14:00:07.317Z,31.96
2018-08-21T14:02:35.824Z,32.08
2018-08-21T14:05:04.563Z,32.09
2018-08-21T14:07:42.446Z,31.72
2018-08-21T14:10:11.014Z,31.43
2018-08-21T14:12:39.914Z,31.23
2018-08-21T14:15:11.302Z,31.20
2018-08-21T14:17:39.602Z,31.04
2018-08-21T14:20:08.425Z,30.84
2018-08-21T14:22:36.942Z,30.81
2018-08-21T14:25:05.430Z,30.87
2018-08-21T14:27:33.862Z,30.91
2018-08-21T14:30:02.553Z,30.87
2018-08-21T14:32:31.544Z,31.11
2018-08-21T14:35:00.936Z,31.39
2018-08-21T14:37:29.569Z,31.30
2018-08-21T14:39:59.208Z,30.87
2018-08-21T14:42:32.831Z,30.52
2018-08-21T14:45:02.374Z,30.43
2018-08-21T14:47:31.373Z,30.46
2018-08-21T14:50:00.067Z,30.58
2018-08-21T14:52:28.700Z,30.65
2018-08-21T14:54:57.579Z,30.66
2018-08-21T14:57:32.807Z,30.68
2018-08-21T15:00:01.732Z,30.74
2018-08-21T15:02:37.937Z,30.78
2018-08-21T15:05:07.334Z,30.61
2018-08-21T15:07:36.762Z,30.50
2018-08-21T15:10:05.122Z,30.50
2018-08-21T15:12:33.747Z,30.44
2018-08-21T15:15:02.049Z,30.27
2018-08-21T15:17:30.591Z,30.08
2018-08-21T15:19:59.263Z,29.94
2018-08-21T15:22:27.856Z,29.90
2018-08-21T15:24:56.709Z,29.92
2018-08-21T15:27:25.975Z,29.97
2018-08-21T15:29:54.078Z,30.02
2018-08-21T15:32:22.621Z,30.07
2018-08-21T15:34:51.074Z,30.10
2018-08-21T15:37:19.201Z,30.10
2018-08-21T15:39:47.463Z,30.10
2018-08-21T15:42:15.627Z,30.16
2018-08-21T15:44:43.734Z,30.21
2018-08-21T15:47:12.174Z,30.14
2018-08-21T15:49:40.300Z,30.14
2018-08-21T15:52:08.954Z,30.19
2018-08-21T15:54:37.413Z,30.19
2018-08-21T15:57:06.066Z,30.05
2018-08-21T15:59:34.514Z,29.99
2018-08-21T16:02:02.993Z,29.95
2018-08-21T16:04:31.506Z,29.88
2018-08-21T16:06:59.639Z,29.79
2018-08-21T16:09:28.097Z,29.61
2018-08-21T16:11:56.736Z,29.45
2018-08-21T16:14:25.385Z,29.28
2018-08-21T16:16:53.830Z,29.24
2018-08-21T16:19:22.577Z,29.24
2018-08-21T16:21:51.013Z,29.22
2018-08-21T16:24:19.454Z,29.13
2018-08-21T16:26:47.578Z,28.99
2018-08-21T16:29:16.014Z,28.99
2018-08-21T16:31:44.657Z,29.05
2018-08-21T16:34:13.087Z,29.11
2018-08-21T16:36:41.527Z,29.21
2018-08-21T16:39:12.030Z,29.34
2018-08-21T16:41:40.618Z,29.50
2018-08-21T16:44:09.411Z,29.57
2018-08-21T16:46:38.044Z,29.58
2018-08-21T16:49:06.882Z,29.64
2018-08-21T16:51:35.448Z,29.62
2018-08-21T16:54:04.308Z,29.39
2018-08-21T16:56:32.738Z,29.12
2018-08-21T16:59:01.178Z,28.94
2018-08-21T17:01:29.654Z,28.73
2018-08-21T17:03:57.758Z,28.52
2018-08-21T17:06:25.861Z,28.40
2018-08-21T17:08:54.305Z,28.37
2018-08-21T17:11:22.761Z,28.38
2018-08-21T17:13:51.445Z,28.43
2018-08-21T17:16:20.148Z,28.43
2018-08-21T17:18:48.293Z,28.45
2018-08-21T17:21:16.717Z,28.42
2018-08-21T17:23:45.236Z,28.40
2018-08-21T17:26:13.666Z,28.37
2018-08-21T17:28:42.101Z,28.35
2018-08-21T17:31:10.543Z,28.33
2018-08-21T17:33:39.005Z,28.31
2018-08-21T17:36:07.437Z,28.27
2018-08-21T17:38:35.549Z,28.22
2018-08-21T17:41:03.755Z,28.16
2018-08-21T17:43:32.202Z,28.12
2018-08-21T17:46:00.663Z,28.08
2018-08-21T17:48:28.893Z,28.02
2018-08-21T17:50:57.537Z,27.94
2018-08-21T17:53:25.672Z,27.87
2018-08-21T17:55:54.110Z,27.81
2018-08-21T17:58:22.757Z,27.72
2018-08-21T18:00:51.205Z,27.64
2018-08-21T18:03:19.648Z,27.54
2018-08-21T18:05:48.295Z,27.48
2018-08-21T18:08:17.029Z,27.43
2018-08-21T18:10:45.156Z,27.39
2018-08-21T18:13:13.607Z,27.29
2018-08-21T18:15:42.173Z,27.23
2018-08-21T18:18:10.722Z,27.14
2018-08-21T18:20:39.159Z,27.06
2018-08-21T18:23:07.633Z,26.99
2018-08-21T18:25:36.174Z,26.94
2018-08-21T18:28:04.298Z,26.90
2018-08-21T18:30:32.742Z,26.86
2018-08-21T18:33:00.870Z,26.79
2018-08-21T18:35:29.315Z,26.73
2018-08-21T18:37:57.958Z,26.69
2018-08-21T18:40:26.621Z,26.63
2018-08-21T18:42:55.062Z,26.59
2018-08-21T18:45:23.513Z,26.53
2018-08-21T18:47:51.948Z,26.47
2018-08-21T18:50:20.330Z,26.42
2018-08-21T18:52:48.926Z,26.36
2018-08-21T18:55:17.034Z,26.31
2018-08-21T18:57:45.390Z,26.24
2018-08-21T19:00:19.349Z,26.17
2018-08-21T19:02:47.821Z,26.12
2018-08-21T19:05:15.994Z,26.07
2018-08-21T19:07:44.363Z,25.99
2018-08-21T19:10:13.026Z,25.91
2018-08-21T19:12:41.154Z,25.86
2018-08-21T19:15:09.609Z,25.84
2018-08-21T19:17:38.073Z,25.81
2018-08-21T19:20:06.658Z,25.79
2018-08-21T19:22:34.766Z,25.73
2018-08-21T19:25:03.220Z,25.65
2018-08-21T19:27:31.843Z,25.59
2018-08-21T19:29:59.949Z,25.50
2018-08-21T19:32:28.077Z,25.43
2018-08-21T19:34:56.725Z,25.38
2018-08-21T19:37:25.165Z,25.30
2018-08-21T19:39:53.665Z,25.21
2018-08-21T19:42:22.128Z,25.13
2018-08-21T19:44:50.271Z,25.05
2018-08-21T19:47:18.719Z,25.04
2018-08-21T19:49:47.349Z,25.04
2018-08-21T19:52:15.806Z,25.05
2018-08-21T19:54:44.121Z,25.05
2018-08-21T19:57:12.229Z,25.01
2018-08-21T19:59:40.362Z,25.00
2018-08-21T20:02:08.853Z,25.02
2018-08-21T20:04:37.297Z,25.03
2018-08-21T20:07:05.822Z,25.01
2018-08-21T20:09:34.275Z,24.92
2018-08-21T20:12:02.388Z,24.86
2018-08-21T20:14:31.022Z,24.83
2018-08-21T20:16:59.137Z,24.82
2018-08-21T20:19:27.602Z,24.75
2018-08-21T20:21:56.042Z,24.69
2018-08-21T20:24:24.142Z,24.68
2018-08-21T20:26:52.258Z,24.64
2018-08-21T20:29:20.361Z,24.56
2018-08-21T20:31:48.814Z,24.50
2018-08-21T20:34:17.106Z,24.43
2018-08-21T20:36:45.607Z,24.37
2018-08-21T20:39:17.757Z,24.35
2018-08-21T20:41:46.237Z,24.34
2018-08-21T20:44:14.658Z,24.32
2018-08-21T20:46:42.789Z,24.29
2018-08-21T20:49:11.249Z,24.26
2018-08-21T20:51:39.695Z,24.21
2018-08-21T20:54:08.361Z,24.18
2018-08-21T20:56:36.489Z,24.12
2018-08-21T20:59:04.582Z,24.02
2018-08-21T21:01:32.940Z,24.01
2018-08-21T21:04:01.057Z,23.97
2018-08-21T21:06:29.509Z,23.89
2018-08-21T21:08:57.734Z,23.77
2018-08-21T21:11:26.440Z,23.60
2018-08-21T21:14:06.109Z,23.48
2018-08-21T21:16:45.675Z,23.40
2018-08-21T21:19:25.157Z,23.35
2018-08-21T21:22:04.793Z,23.27
2018-08-21T21:24:37.416Z,23.25
2018-08-21T21:27:06.028Z,23.24
2018-08-21T21:29:34.122Z,23.21
2018-08-21T21:32:02.564Z,23.18
2018-08-21T21:34:30.898Z,23.15
2018-08-21T21:36:59.022Z,23.11
2018-08-21T21:39:27.182Z,23.10
2018-08-21T21:41:55.636Z,23.08
2018-08-21T21:44:24.087Z,23.01
2018-08-21T21:46:52.538Z,22.99
2018-08-21T21:49:21.010Z,22.99
2018-08-21T21:51:49.441Z,22.94
2018-08-21T21:54:17.896Z,22.90
2018-08-21T21:56:46.481Z,22.87
2018-08-21T21:59:14.590Z,22.87
2018-08-21T22:01:43.077Z,22.85
2018-08-21T22:04:11.717Z,22.84
2018-08-21T22:06:40.166Z,22.88
2018-08-21T22:09:09.515Z,22.97
2018-08-21T22:11:38.273Z,23.02
2018-08-21T22:14:06.889Z,23.04
2018-08-21T22:16:35.154Z,23.07
2018-08-21T22:19:03.242Z,23.10
2018-08-21T22:21:31.551Z,23.12
2018-08-21T22:23:59.680Z,23.00
2018-08-21T22:26:27.823Z,22.87
2018-08-21T22:28:55.934Z,22.77
2018-08-21T22:31:24.278Z,22.68
2018-08-21T22:33:52.647Z,22.59
2018-08-21T22:36:21.101Z,22.51
2018-08-21T22:38:49.229Z,22.44
2018-08-21T22:41:17.340Z,22.32
2018-08-21T22:43:47.070Z,22.19
2018-08-21T22:46:15.182Z,21.96
2018-08-21T22:48:43.359Z,21.79
2018-08-21T22:51:11.451Z,21.62
2018-08-21T22:53:39.577Z,21.49
2018-08-21T22:56:07.678Z,21.40
2018-08-21T22:58:36.113Z,21.34
2018-08-21T23:01:04.221Z,21.27
2018-08-21T23:03:32.881Z,21.23
2018-08-21T23:06:01.342Z,21.20
2018-08-21T23:08:29.524Z,21.18
2018-08-21T23:10:57.653Z,21.15
2018-08-21T23:13:26.110Z,21.08
2018-08-21T23:15:54.652Z,21.00
2018-08-21T23:18:22.880Z,20.96
2018-08-21T23:20:51.024Z,20.93
2018-08-21T23:23:19.460Z,20.89
2018-08-21T23:25:47.910Z,20.86
2018-08-21T23:28:16.372Z,20.84
2018-08-21T23:30:44.803Z,20.79
2018-08-21T23:33:13.322Z,20.73
2018-08-21T23:35:41.434Z,20.66
2018-08-21T23:38:09.542Z,20.60
2018-08-21T23:40:37.641Z,20.57
2018-08-21T23:43:06.466Z,20.53
2018-08-21T23:45:34.593Z,20.49
2018-08-21T23:48:02.711Z,20.44
2018-08-21T23:50:30.830Z,20.34
2018-08-21T23:52:59.293Z,20.24
2018-08-21T23:55:27.734Z,20.19
2018-08-21T23:57:56.365Z,20.17
